sensor_id;sensor_type;location;lat;lon;timestamp;P1;durP1;ratioP1;P2;durP2;ratioP2
19741;SDS011;10028;48.822;11.854;2024-03-29T00:00:56;3.27;;;3.17;;
19741;SDS011;10028;48.822;11.854;2024-03-29T00:03:23;3.20;;;3.10;;
19741;SDS011;10028;48.822;11.854;2024-03-29T00:05:50;3.60;;;3.50;;
19741;SDS011;10028;48.822;11.854;2024-03-29T00:08:16;3.00;;;2.90;;
19741;SDS011;10028;48.822;11.854;2024-03-29T00:10:42;3.57;;;3.47;;
19741;SDS011;10028;48.822;11.854;2024-03-29T00:13:08;3.00;;;2.90;;
19741;SDS011;10028;48.822;11.854;2024-03-29T00:15:35;3.53;;;3.43;;
19741;SDS011;10028;48.822;11.854;2024-03-29T00:18:01;3.10;;;3.00;;
19741;SDS011;10028;48.822;11.854;2024-03-29T00:20:27;3.20;;;3.10;;
19741;SDS011;10028;48.822;11.854;2024-03-29T00:22:54;3.13;;;3.03;;
19741;SDS011;10028;48.822;11.854;2024-03-29T00:25:20;3.10;;;3.00;;
19741;SDS011;10028;48.822;11.854;2024-03-29T00:27:47;3.50;;;3.40;;
19741;SDS011;10028;48.822;11.854;2024-03-29T00:30:13;3.87;;;3.77;;
19741;SDS011;10028;48.822;11.854;2024-03-29T00:32:40;3.20;;;3.10;;
19741;SDS011;10028;48.822;11.854;2024-03-29T00:35:06;4.23;;;4.03;;
19741;SDS011;10028;48.822;11.854;2024-03-29T00:37:33;3.20;;;3.10;;
19741;SDS011;10028;48.822;11.854;2024-03-29T00:39:59;3.30;;;3.20;;
19741;SDS011;10028;48.822;11.854;2024-03-29T00:42:25;3.40;;;3.30;;
19741;SDS011;10028;48.822;11.854;2024-03-29T00:44:52;3.30;;;3.20;;
19741;SDS011;10028;48.822;11.854;2024-03-29T00:47:18;4.00;;;3.87;;
19741;SDS011;10028;48.822;11.854;2024-03-29T00:49:44;3.37;;;3.27;;
19741;SDS011;10028;48.822;11.854;2024-03-29T00:52:11;3.43;;;3.33;;
19741;SDS011;10028;48.822;11.854;2024-03-29T00:54:37;3.43;;;3.33;;
19741;SDS011;10028;48.822;11.854;2024-03-29T00:57:03;3.40;;;3.30;;
19741;SDS011;10028;48.822;11.854;2024-03-29T00:59:30;3.20;;;3.10;;
19741;SDS011;10028;48.822;11.854;2024-03-29T01:01:57;3.43;;;3.33;;
19741;SDS011;10028;48.822;11.854;2024-03-29T01:04:23;3.33;;;3.23;;
19741;SDS011;10028;48.822;11.854;2024-03-29T01:06:49;3.77;;;3.67;;
19741;SDS011;10028;48.822;11.854;2024-03-29T01:09:16;3.17;;;3.07;;
19741;SDS011;10028;48.822;11.854;2024-03-29T01:11:42;3.10;;;3.00;;
19741;SDS011;10028;48.822;11.854;2024-03-29T01:14:08;3.20;;;3.10;;
19741;SDS011;10028;48.822;11.854;2024-03-29T01:16:34;3.63;;;3.53;;
19741;SDS011;10028;48.822;11.854;2024-03-29T01:19:01;3.60;;;3.50;;
19741;SDS011;10028;48.822;11.854;2024-03-29T01:21:28;3.10;;;3.00;;
19741;SDS011;10028;48.822;11.854;2024-03-29T01:23:54;3.43;;;3.33;;
19741;SDS011;10028;48.822;11.854;2024-03-29T01:26:20;3.47;;;3.37;;
19741;SDS011;10028;48.822;11.854;2024-03-29T01:28:47;3.73;;;3.63;;
19741;SDS011;10028;48.822;11.854;2024-03-29T01:31:13;3.27;;;3.17;;
19741;SDS011;10028;48.822;11.854;2024-03-29T01:33:39;3.63;;;3.53;;
19741;SDS011;10028;48.822;11.854;2024-03-29T01:36:06;3.10;;;3.00;;
19741;SDS011;10028;48.822;11.854;2024-03-29T01:38:33;3.20;;;3.10;;
19741;SDS011;10028;48.822;11.854;2024-03-29T01:40:59;4.03;;;3.93;;
19741;SDS011;10028;48.822;11.854;2024-03-29T01:43:26;3.13;;;3.03;;
19741;SDS011;10028;48.822;11.854;2024-03-29T01:45:55;4.00;;;3.90;;
19741;SDS011;10028;48.822;11.854;2024-03-29T01:48:22;3.30;;;3.20;;
19741;SDS011;10028;48.822;11.854;2024-03-29T01:50:49;3.50;;;3.40;;
19741;SDS011;10028;48.822;11.854;2024-03-29T01:53:18;3.67;;;3.57;;
19741;SDS011;10028;48.822;11.854;2024-03-29T01:55:44;3.33;;;3.23;;
19741;SDS011;10028;48.822;11.854;2024-03-29T01:58:11;3.33;;;3.23;;
19741;SDS011;10028;48.822;11.854;2024-03-29T02:00:53;3.60;;;3.50;;
19741;SDS011;10028;48.822;11.854;2024-03-29T02:03:22;3.60;;;3.50;;
19741;SDS011;10028;48.822;11.854;2024-03-29T02:05:48;3.33;;;3.23;;
19741;SDS011;10028;48.822;11.854;2024-03-29T02:08:15;3.40;;;3.30;;
19741;SDS011;10028;48.822;11.854;2024-03-29T02:10:42;3.20;;;3.10;;
19741;SDS011;10028;48.822;11.854;2024-03-29T02:13:11;3.27;;;3.17;;
19741;SDS011;10028;48.822;11.854;2024-03-29T02:15:38;3.30;;;3.20;;
19741;SDS011;10028;48.822;11.854;2024-03-29T02:18:05;3.40;;;3.30;;
19741;SDS011;10028;48.822;11.854;2024-03-29T02:20:34;3.30;;;3.20;;
19741;SDS011;10028;48.822;11.854;2024-03-29T02:23:11;3.30;;;3.20;;
19741;SDS011;10028;48.822;11.854;2024-03-29T02:25:44;3.20;;;3.10;;
19741;SDS011;10028;48.822;11.854;2024-03-29T02:28:11;4.13;;;3.93;;
19741;SDS011;10028;48.822;11.854;2024-03-29T02:30:38;3.10;;;3.00;;
19741;SDS011;10028;48.822;11.854;2024-03-29T02:33:05;3.17;;;3.07;;
19741;SDS011;10028;48.822;11.854;2024-03-29T02:35:31;3.30;;;3.20;;
19741;SDS011;10028;48.822;11.854;2024-03-29T02:37:57;3.13;;;3.03;;
19741;SDS011;10028;48.822;11.854;2024-03-29T02:40:23;3.03;;;2.93;;
19741;SDS011;10028;48.822;11.854;2024-03-29T02:42:50;3.10;;;3.00;;
19741;SDS011;10028;48.822;11.854;2024-03-29T02:45:16;3.30;;;3.20;;
19741;SDS011;10028;48.822;11.854;2024-03-29T02:47:43;3.27;;;3.17;;
19741;SDS011;10028;48.822;11.854;2024-03-29T02:50:10;3.40;;;3.30;;
19741;SDS011;10028;48.822;11.854;2024-03-29T02:52:38;3.17;;;3.07;;
19741;SDS011;10028;48.822;11.854;2024-03-29T02:55:04;3.13;;;3.03;;
19741;SDS011;10028;48.822;11.854;2024-03-29T02:57:30;3.10;;;3.00;;
19741;SDS011;10028;48.822;11.854;2024-03-29T02:59:57;3.17;;;3.07;;
19741;SDS011;10028;48.822;11.854;2024-03-29T03:02:23;3.70;;;3.60;;
19741;SDS011;10028;48.822;11.854;2024-03-29T03:04:49;3.30;;;3.20;;
19741;SDS011;10028;48.822;11.854;2024-03-29T03:07:16;3.33;;;3.23;;
19741;SDS011;10028;48.822;11.854;2024-03-29T03:10:00;3.97;;;3.87;;
19741;SDS011;10028;48.822;11.854;2024-03-29T03:12:45;3.10;;;3.00;;
19741;SDS011;10028;48.822;11.854;2024-03-29T03:15:12;3.27;;;3.17;;
19741;SDS011;10028;48.822;11.854;2024-03-29T03:17:38;3.30;;;3.20;;
19741;SDS011;10028;48.822;11.854;2024-03-29T03:20:04;3.00;;;2.90;;
19741;SDS011;10028;48.822;11.854;2024-03-29T03:22:32;3.10;;;3.00;;
19741;SDS011;10028;48.822;11.854;2024-03-29T03:24:58;3.20;;;3.10;;
19741;SDS011;10028;48.822;11.854;2024-03-29T03:27:24;3.30;;;3.20;;
19741;SDS011;10028;48.822;11.854;2024-03-29T03:29:51;3.30;;;3.20;;
19741;SDS011;10028;48.822;11.854;2024-03-29T03:32:17;3.40;;;3.30;;
19741;SDS011;10028;48.822;11.854;2024-03-29T03:34:43;3.17;;;3.07;;
19741;SDS011;10028;48.822;11.854;2024-03-29T03:37:09;3.13;;;3.03;;
19741;SDS011;10028;48.822;11.854;2024-03-29T03:39:37;3.10;;;3.00;;
19741;SDS011;10028;48.822;11.854;2024-03-29T03:42:03;3.33;;;3.23;;
19741;SDS011;10028;48.822;11.854;2024-03-29T03:44:29;3.33;;;3.23;;
19741;SDS011;10028;48.822;11.854;2024-03-29T03:46:55;3.40;;;3.30;;
19741;SDS011;10028;48.822;11.854;2024-03-29T03:49:22;3.20;;;3.10;;
19741;SDS011;10028;48.822;11.854;2024-03-29T03:51:48;3.20;;;3.10;;
19741;SDS011;10028;48.822;11.854;2024-03-29T03:54:15;3.33;;;3.23;;
19741;SDS011;10028;48.822;11.854;2024-03-29T03:56:41;3.40;;;3.30;;
19741;SDS011;10028;48.822;11.854;2024-03-29T03:59:07;3.30;;;3.20;;
19741;SDS011;10028;48.822;11.854;2024-03-29T04:01:34;3.47;;;3.37;;
19741;SDS011;10028;48.822;11.854;2024-03-29T04:04:00;3.63;;;3.53;;
19741;SDS011;10028;48.822;11.854;2024-03-29T04:06:26;3.47;;;3.37;;
19741;SDS011;10028;48.822;11.854;2024-03-29T04:08:53;3.77;;;3.67;;
19741;SDS011;10028;48.822;11.854;2024-03-29T04:11:19;3.60;;;3.50;;
19741;SDS011;10028;48.822;11.854;2024-03-29T04:13:45;3.50;;;3.40;;
19741;SDS011;10028;48.822;11.854;2024-03-29T04:16:12;3.40;;;3.30;;
19741;SDS011;10028;48.822;11.854;2024-03-29T04:18:38;3.50;;;3.40;;
19741;SDS011;10028;48.822;11.854;2024-03-29T04:21:04;3.30;;;3.20;;
19741;SDS011;10028;48.822;11.854;2024-03-29T04:23:30;3.40;;;3.30;;
19741;SDS011;10028;48.822;11.854;2024-03-29T04:25:57;3.30;;;3.20;;
19741;SDS011;10028;48.822;11.854;2024-03-29T04:28:24;3.70;;;3.60;;
19741;SDS011;10028;48.822;11.854;2024-03-29T04:30:54;3.60;;;3.50;;
19741;SDS011;10028;48.822;11.854;2024-03-29T04:33:21;3.60;;;3.50;;
19741;SDS011;10028;48.822;11.854;2024-03-29T04:35:55;3.47;;;3.37;;
19741;SDS011;10028;48.822;11.854;2024-03-29T04:38:25;3.30;;;3.20;;
19741;SDS011;10028;48.822;11.854;2024-03-29T04:40:53;3.60;;;3.50;;
19741;SDS011;10028;48.822;11.854;2024-03-29T04:43:23;3.50;;;3.40;;
19741;SDS011;10028;48.822;11.854;2024-03-29T04:46:01;3.67;;;3.57;;
19741;SDS011;10028;48.822;11.854;2024-03-29T04:48:40;3.27;;;3.17;;
19741;SDS011;10028;48.822;11.854;2024-03-29T04:51:07;3.77;;;3.67;;
19741;SDS011;10028;48.822;11.854;2024-03-29T04:53:35;3.50;;;3.40;;
19741;SDS011;10028;48.822;11.854;2024-03-29T04:56:01;3.87;;;3.77;;
19741;SDS011;10028;48.822;11.854;2024-03-29T04:58:28;3.80;;;3.70;;
19741;SDS011;10028;48.822;11.854;2024-03-29T05:00:54;3.40;;;3.30;;
19741;SDS011;10028;48.822;11.854;2024-03-29T05:03:21;3.50;;;3.40;;
19741;SDS011;10028;48.822;11.854;2024-03-29T05:05:48;3.30;;;3.20;;
19741;SDS011;10028;48.822;11.854;2024-03-29T05:08:15;3.33;;;3.23;;
19741;SDS011;10028;48.822;11.854;2024-03-29T05:10:43;4.63;;;4.43;;
19741;SDS011;10028;48.822;11.854;2024-03-29T05:13:09;3.20;;;3.10;;
19741;SDS011;10028;48.822;11.854;2024-03-29T05:15:35;3.40;;;3.30;;
19741;SDS011;10028;48.822;11.854;2024-03-29T05:18:02;3.60;;;3.50;;
19741;SDS011;10028;48.822;11.854;2024-03-29T05:20:28;3.50;;;3.40;;
19741;SDS011;10028;48.822;11.854;2024-03-29T05:22:55;3.70;;;3.60;;
19741;SDS011;10028;48.822;11.854;2024-03-29T05:25:21;3.40;;;3.30;;
19741;SDS011;10028;48.822;11.854;2024-03-29T05:27:49;3.80;;;3.70;;
19741;SDS011;10028;48.822;11.854;2024-03-29T05:30:15;3.20;;;3.10;;
19741;SDS011;10028;48.822;11.854;2024-03-29T05:32:41;3.10;;;3.00;;
19741;SDS011;10028;48.822;11.854;2024-03-29T05:35:08;3.67;;;3.57;;
19741;SDS011;10028;48.822;11.854;2024-03-29T05:37:35;3.37;;;3.27;;
19741;SDS011;10028;48.822;11.854;2024-03-29T05:40:02;3.37;;;3.27;;
19741;SDS011;10028;48.822;11.854;2024-03-29T05:42:30;3.40;;;3.30;;
19741;SDS011;10028;48.822;11.854;2024-03-29T05:44:57;3.80;;;3.70;;
19741;SDS011;10028;48.822;11.854;2024-03-29T05:47:23;3.83;;;3.73;;
19741;SDS011;10028;48.822;11.854;2024-03-29T05:49:50;3.50;;;3.40;;
19741;SDS011;10028;48.822;11.854;2024-03-29T05:52:16;3.73;;;3.63;;
19741;SDS011;10028;48.822;11.854;2024-03-29T05:54:43;3.47;;;3.37;;
19741;SDS011;10028;48.822;11.854;2024-03-29T05:57:10;3.20;;;3.10;;
19741;SDS011;10028;48.822;11.854;2024-03-29T05:59:36;3.30;;;3.20;;
19741;SDS011;10028;48.822;11.854;2024-03-29T06:02:03;3.33;;;3.23;;
19741;SDS011;10028;48.822;11.854;2024-03-29T06:04:29;3.10;;;3.00;;
19741;SDS011;10028;48.822;11.854;2024-03-29T06:07:03;3.30;;;3.20;;
19741;SDS011;10028;48.822;11.854;2024-03-29T06:09:30;3.20;;;3.10;;
19741;SDS011;10028;48.822;11.854;2024-03-29T06:11:59;3.10;;;3.00;;
19741;SDS011;10028;48.822;11.854;2024-03-29T06:14:25;3.37;;;3.27;;
19741;SDS011;10028;48.822;11.854;2024-03-29T06:17:11;3.10;;;3.00;;
19741;SDS011;10028;48.822;11.854;2024-03-29T06:19:52;3.10;;;3.00;;
19741;SDS011;10028;48.822;11.854;2024-03-29T06:22:24;3.17;;;3.07;;
19741;SDS011;10028;48.822;11.854;2024-03-29T06:24:51;2.90;;;2.80;;
19741;SDS011;10028;48.822;11.854;2024-03-29T06:27:18;2.97;;;2.87;;
19741;SDS011;10028;48.822;11.854;2024-03-29T06:29:45;3.57;;;3.47;;
19741;SDS011;10028;48.822;11.854;2024-03-29T06:32:12;3.30;;;3.20;;
19741;SDS011;10028;48.822;11.854;2024-03-29T06:34:39;2.80;;;2.70;;
19741;SDS011;10028;48.822;11.854;2024-03-29T06:37:05;3.10;;;3.00;;
19741;SDS011;10028;48.822;11.854;2024-03-29T06:39:32;3.07;;;2.97;;
19741;SDS011;10028;48.822;11.854;2024-03-29T06:41:59;3.00;;;2.90;;
19741;SDS011;10028;48.822;11.854;2024-03-29T06:44:25;3.17;;;3.07;;
19741;SDS011;10028;48.822;11.854;2024-03-29T06:46:51;3.30;;;3.20;;
19741;SDS011;10028;48.822;11.854;2024-03-29T06:49:18;3.20;;;3.10;;
19741;SDS011;10028;48.822;11.854;2024-03-29T06:51:44;3.10;;;3.00;;
19741;SDS011;10028;48.822;11.854;2024-03-29T06:54:10;3.10;;;3.00;;
19741;SDS011;10028;48.822;11.854;2024-03-29T06:56:37;3.07;;;2.97;;
19741;SDS011;10028;48.822;11.854;2024-03-29T06:59:03;2.80;;;2.70;;
19741;SDS011;10028;48.822;11.854;2024-03-29T07:01:30;3.20;;;3.10;;
19741;SDS011;10028;48.822;11.854;2024-03-29T07:03:56;2.90;;;2.80;;
19741;SDS011;10028;48.822;11.854;2024-03-29T07:06:22;3.20;;;3.10;;
19741;SDS011;10028;48.822;11.854;2024-03-29T07:08:49;2.70;;;2.60;;
19741;SDS011;10028;48.822;11.854;2024-03-29T07:11:15;2.80;;;2.70;;
19741;SDS011;10028;48.822;11.854;2024-03-29T07:13:41;3.23;;;3.13;;
19741;SDS011;10028;48.822;11.854;2024-03-29T07:16:07;3.20;;;3.10;;
19741;SDS011;10028;48.822;11.854;2024-03-29T07:18:34;2.83;;;2.73;;
19741;SDS011;10028;48.822;11.854;2024-03-29T07:21:00;2.93;;;2.83;;
19741;SDS011;10028;48.822;11.854;2024-03-29T07:23:26;2.80;;;2.70;;
19741;SDS011;10028;48.822;11.854;2024-03-29T07:26:03;2.90;;;2.80;;
19741;SDS011;10028;48.822;11.854;2024-03-29T07:28:30;3.63;;;3.53;;
19741;SDS011;10028;48.822;11.854;2024-03-29T07:30:57;2.90;;;2.80;;
19741;SDS011;10028;48.822;11.854;2024-03-29T07:33:24;2.97;;;2.87;;
19741;SDS011;10028;48.822;11.854;2024-03-29T07:35:53;2.80;;;2.70;;
19741;SDS011;10028;48.822;11.854;2024-03-29T07:38:20;3.20;;;3.10;;
19741;SDS011;10028;48.822;11.854;2024-03-29T07:40:48;2.80;;;2.70;;
19741;SDS011;10028;48.822;11.854;2024-03-29T07:43:14;2.70;;;2.60;;
19741;SDS011;10028;48.822;11.854;2024-03-29T07:45:44;2.90;;;2.80;;
19741;SDS011;10028;48.822;11.854;2024-03-29T07:48:11;3.00;;;2.90;;
19741;SDS011;10028;48.822;11.854;2024-03-29T07:50:45;2.90;;;2.80;;
19741;SDS011;10028;48.822;11.854;2024-03-29T07:53:11;2.80;;;2.70;;
19741;SDS011;10028;48.822;11.854;2024-03-29T07:55:38;2.80;;;2.70;;
19741;SDS011;10028;48.822;11.854;2024-03-29T07:58:06;2.80;;;2.70;;
19741;SDS011;10028;48.822;11.854;2024-03-29T08:00:34;2.83;;;2.73;;
19741;SDS011;10028;48.822;11.854;2024-03-29T08:03:00;2.80;;;2.70;;
19741;SDS011;10028;48.822;11.854;2024-03-29T08:05:27;2.70;;;2.60;;
19741;SDS011;10028;48.822;11.854;2024-03-29T08:07:53;2.83;;;2.73;;
19741;SDS011;10028;48.822;11.854;2024-03-29T08:10:20;2.80;;;2.70;;
19741;SDS011;10028;48.822;11.854;2024-03-29T08:12:46;2.70;;;2.60;;
19741;SDS011;10028;48.822;11.854;2024-03-29T08:15:12;2.60;;;2.50;;
19741;SDS011;10028;48.822;11.854;2024-03-29T08:17:39;2.63;;;2.53;;
19741;SDS011;10028;48.822;11.854;2024-03-29T08:20:05;2.80;;;2.70;;
19741;SDS011;10028;48.822;11.854;2024-03-29T08:22:31;2.67;;;2.57;;
19741;SDS011;10028;48.822;11.854;2024-03-29T08:24:58;2.60;;;2.50;;
19741;SDS011;10028;48.822;11.854;2024-03-29T08:27:26;2.70;;;2.60;;
19741;SDS011;10028;48.822;11.854;2024-03-29T08:29:52;2.57;;;2.47;;
19741;SDS011;10028;48.822;11.854;2024-03-29T08:32:19;2.80;;;2.70;;
19741;SDS011;10028;48.822;11.854;2024-03-29T08:34:45;2.70;;;2.60;;
19741;SDS011;10028;48.822;11.854;2024-03-29T08:37:11;2.77;;;2.67;;
19741;SDS011;10028;48.822;11.854;2024-03-29T08:39:37;2.67;;;2.57;;
19741;SDS011;10028;48.822;11.854;2024-03-29T08:42:04;2.70;;;2.60;;
19741;SDS011;10028;48.822;11.854;2024-03-29T08:44:31;2.50;;;2.40;;
19741;SDS011;10028;48.822;11.854;2024-03-29T08:46:58;2.80;;;2.70;;
19741;SDS011;10028;48.822;11.854;2024-03-29T08:49:29;2.63;;;2.53;;
19741;SDS011;10028;48.822;11.854;2024-03-29T08:51:56;3.77;;;3.47;;
19741;SDS011;10028;48.822;11.854;2024-03-29T08:54:22;2.30;;;2.20;;
19741;SDS011;10028;48.822;11.854;2024-03-29T08:56:49;2.80;;;2.70;;
19741;SDS011;10028;48.822;11.854;2024-03-29T08:59:15;2.30;;;2.20;;
19741;SDS011;10028;48.822;11.854;2024-03-29T09:01:42;2.33;;;2.23;;
19741;SDS011;10028;48.822;11.854;2024-03-29T09:04:10;2.63;;;2.53;;
19741;SDS011;10028;48.822;11.854;2024-03-29T09:06:39;2.63;;;2.53;;
19741;SDS011;10028;48.822;11.854;2024-03-29T09:09:06;2.10;;;2.10;;
19741;SDS011;10028;48.822;11.854;2024-03-29T09:11:32;2.33;;;2.23;;
19741;SDS011;10028;48.822;11.854;2024-03-29T09:13:59;2.40;;;2.30;;
19741;SDS011;10028;48.822;11.854;2024-03-29T09:16:26;2.37;;;2.27;;
19741;SDS011;10028;48.822;11.854;2024-03-29T09:18:54;2.40;;;2.30;;
19741;SDS011;10028;48.822;11.854;2024-03-29T09:21:20;2.10;;;2.10;;
19741;SDS011;10028;48.822;11.854;2024-03-29T09:23:46;2.23;;;2.20;;
19741;SDS011;10028;48.822;11.854;2024-03-29T09:26:14;2.17;;;2.17;;
19741;SDS011;10028;48.822;11.854;2024-03-29T09:28:41;2.30;;;2.20;;
19741;SDS011;10028;48.822;11.854;2024-03-29T09:31:07;1.93;;;1.93;;
19741;SDS011;10028;48.822;11.854;2024-03-29T09:33:34;2.57;;;2.47;;
19741;SDS011;10028;48.822;11.854;2024-03-29T09:36:00;2.03;;;2.03;;
19741;SDS011;10028;48.822;11.854;2024-03-29T09:38:28;1.90;;;1.90;;
19741;SDS011;10028;48.822;11.854;2024-03-29T09:43:37;1.70;;;1.70;;
19741;SDS011;10028;48.822;11.854;2024-03-29T09:46:04;3.40;;;3.07;;
19741;SDS011;10028;48.822;11.854;2024-03-29T09:48:31;2.00;;;2.00;;
19741;SDS011;10028;48.822;11.854;2024-03-29T09:51:03;1.93;;;1.93;;
19741;SDS011;10028;48.822;11.854;2024-03-29T09:53:30;2.00;;;2.00;;
19741;SDS011;10028;48.822;11.854;2024-03-29T09:55:59;1.90;;;1.90;;
19741;SDS011;10028;48.822;11.854;2024-03-29T09:58:26;2.07;;;2.07;;
19741;SDS011;10028;48.822;11.854;2024-03-29T10:00:53;1.70;;;1.70;;
19741;SDS011;10028;48.822;11.854;2024-03-29T10:03:22;1.70;;;1.70;;
19741;SDS011;10028;48.822;11.854;2024-03-29T10:05:55;2.00;;;2.00;;
19741;SDS011;10028;48.822;11.854;2024-03-29T10:08:26;2.00;;;2.00;;
19741;SDS011;10028;48.822;11.854;2024-03-29T10:10:56;1.83;;;1.83;;
19741;SDS011;10028;48.822;11.854;2024-03-29T10:13:23;2.00;;;2.00;;
19741;SDS011;10028;48.822;11.854;2024-03-29T10:15:49;1.83;;;1.83;;
19741;SDS011;10028;48.822;11.854;2024-03-29T10:18:24;2.07;;;2.07;;
19741;SDS011;10028;48.822;11.854;2024-03-29T10:21:01;1.83;;;1.83;;
19741;SDS011;10028;48.822;11.854;2024-03-29T10:23:28;1.90;;;1.90;;
19741;SDS011;10028;48.822;11.854;2024-03-29T10:25:54;2.00;;;2.00;;
19741;SDS011;10028;48.822;11.854;2024-03-29T10:28:21;1.90;;;1.90;;
19741;SDS011;10028;48.822;11.854;2024-03-29T10:30:48;2.07;;;2.07;;
19741;SDS011;10028;48.822;11.854;2024-03-29T10:33:15;1.60;;;1.60;;
19741;SDS011;10028;48.822;11.854;2024-03-29T10:35:45;2.03;;;2.03;;
19741;SDS011;10028;48.822;11.854;2024-03-29T10:38:11;1.97;;;1.97;;
19741;SDS011;10028;48.822;11.854;2024-03-29T10:40:41;1.80;;;1.80;;
19741;SDS011;10028;48.822;11.854;2024-03-29T10:43:10;1.70;;;1.70;;
19741;SDS011;10028;48.822;11.854;2024-03-29T10:45:41;1.97;;;1.97;;
19741;SDS011;10028;48.822;11.854;2024-03-29T10:48:08;1.90;;;1.90;;
19741;SDS011;10028;48.822;11.854;2024-03-29T10:50:36;1.73;;;1.73;;
19741;SDS011;10028;48.822;11.854;2024-03-29T10:53:04;1.97;;;1.97;;
19741;SDS011;10028;48.822;11.854;2024-03-29T10:55:34;1.87;;;1.87;;
19741;SDS011;10028;48.822;11.854;2024-03-29T10:58:01;1.80;;;1.80;;
19741;SDS011;10028;48.822;11.854;2024-03-29T11:00:28;1.60;;;1.60;;
19741;SDS011;10028;48.822;11.854;2024-03-29T11:05:50;1.70;;;1.70;;
19741;SDS011;10028;48.822;11.854;2024-03-29T11:08:27;1.80;;;1.80;;
19741;SDS011;10028;48.822;11.854;2024-03-29T11:10:57;1.60;;;1.60;;
19741;SDS011;10028;48.822;11.854;2024-03-29T11:13:39;1.87;;;1.87;;
19741;SDS011;10028;48.822;11.854;2024-03-29T11:16:07;1.93;;;1.93;;
19741;SDS011;10028;48.822;11.854;2024-03-29T11:18:34;1.50;;;1.50;;
19741;SDS011;10028;48.822;11.854;2024-03-29T11:21:02;1.57;;;1.57;;
19741;SDS011;10028;48.822;11.854;2024-03-29T11:23:31;1.63;;;1.63;;
19741;SDS011;10028;48.822;11.854;2024-03-29T11:25:57;1.97;;;1.97;;
19741;SDS011;10028;48.822;11.854;2024-03-29T11:28:31;1.67;;;1.67;;
19741;SDS011;10028;48.822;11.854;2024-03-29T11:36:13;1.80;;;1.80;;
19741;SDS011;10028;48.822;11.854;2024-03-29T11:38:57;1.73;;;1.73;;
19741;SDS011;10028;48.822;11.854;2024-03-29T11:41:23;1.80;;;1.80;;
19741;SDS011;10028;48.822;11.854;2024-03-29T11:43:50;1.60;;;1.60;;
19741;SDS011;10028;48.822;11.854;2024-03-29T11:46:17;1.70;;;1.70;;
19741;SDS011;10028;48.822;11.854;2024-03-29T11:48:44;1.53;;;1.53;;
19741;SDS011;10028;48.822;11.854;2024-03-29T11:51:20;1.50;;;1.50;;
19741;SDS011;10028;48.822;11.854;2024-03-29T11:53:49;1.60;;;1.60;;
19741;SDS011;10028;48.822;11.854;2024-03-29T11:56:16;2.10;;;2.10;;
19741;SDS011;10028;48.822;11.854;2024-03-29T11:58:43;1.80;;;1.80;;
19741;SDS011;10028;48.822;11.854;2024-03-29T12:01:09;3.43;;;2.43;;
19741;SDS011;10028;48.822;11.854;2024-03-29T12:03:39;1.47;;;1.47;;
19741;SDS011;10028;48.822;11.854;2024-03-29T12:06:06;1.73;;;1.73;;
19741;SDS011;10028;48.822;11.854;2024-03-29T12:08:33;1.53;;;1.53;;
19741;SDS011;10028;48.822;11.854;2024-03-29T12:11:04;1.83;;;1.83;;
19741;SDS011;10028;48.822;11.854;2024-03-29T12:13:30;1.60;;;1.60;;
19741;SDS011;10028;48.822;11.854;2024-03-29T12:15:57;1.50;;;1.50;;
19741;SDS011;10028;48.822;11.854;2024-03-29T12:18:24;1.40;;;1.40;;
19741;SDS011;10028;48.822;11.854;2024-03-29T12:20:53;1.30;;;1.30;;
19741;SDS011;10028;48.822;11.854;2024-03-29T12:23:20;1.50;;;1.50;;
19741;SDS011;10028;48.822;11.854;2024-03-29T12:25:47;1.73;;;1.73;;
19741;SDS011;10028;48.822;11.854;2024-03-29T12:28:15;1.90;;;1.90;;
19741;SDS011;10028;48.822;11.854;2024-03-29T12:30:42;1.77;;;1.77;;
19741;SDS011;10028;48.822;11.854;2024-03-29T12:33:17;1.60;;;1.60;;
19741;SDS011;10028;48.822;11.854;2024-03-29T12:35:47;1.57;;;1.57;;
19741;SDS011;10028;48.822;11.854;2024-03-29T12:38:15;1.40;;;1.40;;
19741;SDS011;10028;48.822;11.854;2024-03-29T12:40:42;1.40;;;1.40;;
19741;SDS011;10028;48.822;11.854;2024-03-29T12:43:10;1.60;;;1.60;;
19741;SDS011;10028;48.822;11.854;2024-03-29T12:45:36;1.57;;;1.57;;
19741;SDS011;10028;48.822;11.854;2024-03-29T12:48:11;1.67;;;1.67;;
19741;SDS011;10028;48.822;11.854;2024-03-29T12:50:39;1.60;;;1.60;;
19741;SDS011;10028;48.822;11.854;2024-03-29T12:53:06;1.63;;;1.63;;
19741;SDS011;10028;48.822;11.854;2024-03-29T12:55:33;1.53;;;1.53;;
19741;SDS011;10028;48.822;11.854;2024-03-29T12:58:04;1.97;;;1.97;;
19741;SDS011;10028;48.822;11.854;2024-03-29T13:00:35;1.50;;;1.50;;
19741;SDS011;10028;48.822;11.854;2024-03-29T13:03:02;1.67;;;1.67;;
19741;SDS011;10028;48.822;11.854;2024-03-29T13:05:28;1.80;;;1.80;;
19741;SDS011;10028;48.822;11.854;2024-03-29T13:08:00;1.30;;;1.30;;
19741;SDS011;10028;48.822;11.854;2024-03-29T13:10:27;1.43;;;1.43;;
19741;SDS011;10028;48.822;11.854;2024-03-29T13:12:53;1.67;;;1.67;;
19741;SDS011;10028;48.822;11.854;2024-03-29T13:15:20;1.50;;;1.50;;
19741;SDS011;10028;48.822;11.854;2024-03-29T13:17:53;1.80;;;1.80;;
19741;SDS011;10028;48.822;11.854;2024-03-29T13:20:21;2.80;;;2.70;;
19741;SDS011;10028;48.822;11.854;2024-03-29T13:22:48;1.40;;;1.40;;
19741;SDS011;10028;48.822;11.854;2024-03-29T13:25:16;2.27;;;2.17;;
19741;SDS011;10028;48.822;11.854;2024-03-29T13:27:42;1.37;;;1.37;;
19741;SDS011;10028;48.822;11.854;2024-03-29T13:30:10;1.47;;;1.47;;
19741;SDS011;10028;48.822;11.854;2024-03-29T13:32:46;1.30;;;1.30;;
19741;SDS011;10028;48.822;11.854;2024-03-29T13:35:12;1.50;;;1.50;;
19741;SDS011;10028;48.822;11.854;2024-03-29T13:37:39;1.40;;;1.40;;
19741;SDS011;10028;48.822;11.854;2024-03-29T13:40:08;1.30;;;1.30;;
19741;SDS011;10028;48.822;11.854;2024-03-29T13:42:35;1.70;;;1.70;;
19741;SDS011;10028;48.822;11.854;2024-03-29T13:45:02;1.23;;;1.23;;
19741;SDS011;10028;48.822;11.854;2024-03-29T13:47:31;1.70;;;1.70;;
19741;SDS011;10028;48.822;11.854;2024-03-29T13:49:58;1.37;;;1.37;;
19741;SDS011;10028;48.822;11.854;2024-03-29T13:52:24;1.60;;;1.60;;
19741;SDS011;10028;48.822;11.854;2024-03-29T13:54:53;1.37;;;1.37;;
19741;SDS011;10028;48.822;11.854;2024-03-29T13:57:19;1.87;;;1.87;;
19741;SDS011;10028;48.822;11.854;2024-03-29T13:59:46;1.47;;;1.47;;
19741;SDS011;10028;48.822;11.854;2024-03-29T14:02:13;1.63;;;1.63;;
19741;SDS011;10028;48.822;11.854;2024-03-29T14:04:40;1.23;;;1.23;;
19741;SDS011;10028;48.822;11.854;2024-03-29T14:07:08;1.63;;;1.63;;
19741;SDS011;10028;48.822;11.854;2024-03-29T14:09:39;1.50;;;1.50;;
19741;SDS011;10028;48.822;11.854;2024-03-29T14:12:05;1.00;;;1.00;;
19741;SDS011;10028;48.822;11.854;2024-03-29T14:14:32;1.37;;;1.37;;
19741;SDS011;10028;48.822;11.854;2024-03-29T14:16:58;1.40;;;1.40;;
19741;SDS011;10028;48.822;11.854;2024-03-29T14:19:32;1.60;;;1.60;;
19741;SDS011;10028;48.822;11.854;2024-03-29T14:22:02;1.60;;;1.60;;
19741;SDS011;10028;48.822;11.854;2024-03-29T14:24:29;1.40;;;1.40;;
19741;SDS011;10028;48.822;11.854;2024-03-29T14:26:58;1.80;;;1.80;;
19741;SDS011;10028;48.822;11.854;2024-03-29T14:29:24;1.70;;;1.70;;
19741;SDS011;10028;48.822;11.854;2024-03-29T14:31:51;1.17;;;1.17;;
19741;SDS011;10028;48.822;11.854;2024-03-29T14:34:20;1.30;;;1.30;;
19741;SDS011;10028;48.822;11.854;2024-03-29T14:36:47;1.40;;;1.40;;
19741;SDS011;10028;48.822;11.854;2024-03-29T14:39:14;1.30;;;1.30;;
19741;SDS011;10028;48.822;11.854;2024-03-29T14:41:41;1.00;;;1.00;;
19741;SDS011;10028;48.822;11.854;2024-03-29T14:44:08;1.57;;;1.57;;
19741;SDS011;10028;48.822;11.854;2024-03-29T14:46:34;1.60;;;1.60;;